| |
Missouri Department of Transportation

Social Media Facebook Twitter Flickr Instagram YouTube RSS

Current METAR Information for All MoDOT Locations 
AWOS Home
Current METAR for all Airports
Glossary - Disclaimer


Location Current METAR Record
Boonville METAR KVER 212015Z AUTO 34007KT 10SM SCT047 28/15 A3006 RMK AO2 T02790147
Branson METAR KBBG 212010Z AUTO 30005G15KT 10SM BKN041 BKN048 26/18 A3011 RMK AO2
Branson West METAR KFWB 212015Z AUTO 35008G16KT 320V020 10SM FEW040 27/17 A3011 RMK AO2
Camdenton METAR KOZS 212015Z AUTO 33007KT 10SM SCT043 26/16 A3008 RMK AO2
Clinton METAR KGLY 212010Z AUTO 34006KT 8SM SCT050 27/17 A3010 RMK AO2
Hannibal METAR KHAE 212015Z AUTO 33011G17KT 10SM SCT048 SCT050 28/12 A3003 RMK AO2
Harrisonville METAR KLRY 212015Z AUTO 01007KT 10SM SCT045 29/16 A3014 RMK AO2
Lebanon METAR KLBO 212020Z AUTO 33010G18KT 10SM SCT037 26/16 A3010 RMK AO2
Malden METAR KMAW 212020Z AUTO 28008KT 10SM CLR 29/20 A2999 RMK AO2
Marshall METAR KMHL 212020Z AUTO 33008G14KT 10SM SCT044 27/17 A3009 RMK AO2
Maryville METAR KEVU 211906Z AUTO 35005KT 7SM BKN023 BKN030 25/12 A3012 RMK AO2
Mexico METAR KMYJ 212020Z AUTO 36011G17KT 10SM SCT050 A3004 RMK AO2
Moberly METAR KMBY 212021Z AUTO 31007KT 10SM CLR 28/15 A3006 RMK AO2
Mosby METAR KGPH 212018Z AUTO 33010KT 10SM SCT042 27/16 A3011 RMK AO2
Sikeston METAR KSIK 212040Z AUTO 30003KT 10SM SCT005 SCT011 BKN033 26/21 A2996 RMK AO2
Warrensburg METAR KRCM 212025Z AUTO 33008KT 10SM SCT048 28/15 A3009 RMK AO2
Warsaw METAR KRAW 212016Z AUTO 34008KT 10SM CLR A3010 RMK AO2
Washington METAR KFYG 211945Z AUTO 33008G15KT 10SM FEW047 SCT050 27/17 A3000 RMK AO2
About Us
How Do I...
Contact Us
Missouri Department of Transportation
Central Office
105 W. Capitol Avenue
Jefferson City, MO 65102
1-888-ASK-MODOT (275-6636)
1-866-831-6277 (Motor Carrier Services)
Driver's License Offices
horz_bar
| | |
Missouri State Government
© 2013 Missouri Department of Transportation. All Rights Reserved.   Privacy Policy.
 
 
 
 
RSS FeedYoutubeBlogFlickrTwitter Facebook